sensor_id;sensor_type;location;lat;lon;timestamp;temperature;humidity
68804;SHT31;55787;52.678;13.314;2023-11-19T00:00:48;3.95;94.54
68804;SHT31;55787;52.678;13.314;2023-11-19T00:03:18;3.88;94.59
68804;SHT31;55787;52.678;13.314;2023-11-19T00:05:44;3.90;94.75
68804;SHT31;55787;52.678;13.314;2023-11-19T00:08:11;3.88;94.99
68804;SHT31;55787;52.678;13.314;2023-11-19T00:10:37;3.94;94.51
68804;SHT31;55787;52.678;13.314;2023-11-19T00:13:04;3.90;94.77
68804;SHT31;55787;52.678;13.314;2023-11-19T00:15:31;3.87;95.03
68804;SHT31;55787;52.678;13.314;2023-11-19T00:17:57;3.87;94.41
68804;SHT31;55787;52.678;13.314;2023-11-19T00:20:27;3.88;94.89
68804;SHT31;55787;52.678;13.314;2023-11-19T00:22:55;3.84;94.77
68804;SHT31;55787;52.678;13.314;2023-11-19T00:25:21;3.81;95.11
68804;SHT31;55787;52.678;13.314;2023-11-19T00:27:51;3.85;94.93
68804;SHT31;55787;52.678;13.314;2023-11-19T00:30:20;3.85;94.92
68804;SHT31;55787;52.678;13.314;2023-11-19T00:32:47;3.84;94.75
68804;SHT31;55787;52.678;13.314;2023-11-19T00:35:14;3.78;95.07
68804;SHT31;55787;52.678;13.314;2023-11-19T00:37:41;3.81;94.61
68804;SHT31;55787;52.678;13.314;2023-11-19T00:40:09;3.85;94.81
68804;SHT31;55787;52.678;13.314;2023-11-19T00:42:37;3.90;94.69
68804;SHT31;55787;52.678;13.314;2023-11-19T00:45:04;3.84;94.65
68804;SHT31;55787;52.678;13.314;2023-11-19T00:47:34;3.81;94.98
68804;SHT31;55787;52.678;13.314;2023-11-19T00:50:02;3.87;94.60
68804;SHT31;55787;52.678;13.314;2023-11-19T00:52:29;3.91;94.17
68804;SHT31;55787;52.678;13.314;2023-11-19T00:54:56;3.94;94.25
68804;SHT31;55787;52.678;13.314;2023-11-19T00:57:23;3.91;94.10
68804;SHT31;55787;52.678;13.314;2023-11-19T00:59:50;3.91;94.12
68804;SHT31;55787;52.678;13.314;2023-11-19T01:02:17;3.90;94.14
68804;SHT31;55787;52.678;13.314;2023-11-19T01:04:43;3.88;94.56
68804;SHT31;55787;52.678;13.314;2023-11-19T01:07:10;3.95;94.06
68804;SHT31;55787;52.678;13.314;2023-11-19T01:09:41;3.91;94.18
68804;SHT31;55787;52.678;13.314;2023-11-19T01:12:09;3.91;94.13
68804;SHT31;55787;52.678;13.314;2023-11-19T01:14:37;3.88;94.00
68804;SHT31;55787;52.678;13.314;2023-11-19T01:17:03;3.91;93.94
68804;SHT31;55787;52.678;13.314;2023-11-19T01:19:31;3.88;93.99
68804;SHT31;55787;52.678;13.314;2023-11-19T01:21:58;3.98;93.75
68804;SHT31;55787;52.678;13.314;2023-11-19T01:24:24;4.01;93.64
68804;SHT31;55787;52.678;13.314;2023-11-19T01:26:54;3.92;93.91
68804;SHT31;55787;52.678;13.314;2023-11-19T01:29:21;3.95;93.72
68804;SHT31;55787;52.678;13.314;2023-11-19T01:31:48;4.03;93.26
68804;SHT31;55787;52.678;13.314;2023-11-19T01:34:14;4.01;93.29
68804;SHT31;55787;52.678;13.314;2023-11-19T01:36:41;4.05;92.81
68804;SHT31;55787;52.678;13.314;2023-11-19T01:39:08;4.05;92.88
68804;SHT31;55787;52.678;13.314;2023-11-19T01:41:35;4.05;93.21
68804;SHT31;55787;52.678;13.314;2023-11-19T01:44:02;4.05;92.88
68804;SHT31;55787;52.678;13.314;2023-11-19T01:46:30;3.99;92.99
68804;SHT31;55787;52.678;13.314;2023-11-19T01:48:59;3.99;92.99
68804;SHT31;55787;52.678;13.314;2023-11-19T01:51:27;4.05;92.92
68804;SHT31;55787;52.678;13.314;2023-11-19T01:53:54;4.06;92.83
68804;SHT31;55787;52.678;13.314;2023-11-19T01:56:22;4.13;92.39
68804;SHT31;55787;52.678;13.314;2023-11-19T01:58:49;4.11;92.47
68804;SHT31;55787;52.678;13.314;2023-11-19T02:01:16;4.13;92.20
68804;SHT31;55787;52.678;13.314;2023-11-19T02:03:43;4.09;92.72
68804;SHT31;55787;52.678;13.314;2023-11-19T02:06:10;4.08;92.93
68804;SHT31;55787;52.678;13.314;2023-11-19T02:08:37;4.23;92.09
68804;SHT31;55787;52.678;13.314;2023-11-19T02:11:05;4.19;91.85
68804;SHT31;55787;52.678;13.314;2023-11-19T02:13:33;4.15;92.74
68804;SHT31;55787;52.678;13.314;2023-11-19T02:16:02;4.16;92.86
68804;SHT31;55787;52.678;13.314;2023-11-19T02:18:30;4.16;92.97
68804;SHT31;55787;52.678;13.314;2023-11-19T02:20:58;4.19;93.02
68804;SHT31;55787;52.678;13.314;2023-11-19T02:23:28;4.29;92.63
68804;SHT31;55787;52.678;13.314;2023-11-19T02:28:29;4.29;92.33
68804;SHT31;55787;52.678;13.314;2023-11-19T02:30:55;4.26;92.32
68804;SHT31;55787;52.678;13.314;2023-11-19T02:33:22;4.23;92.55
68804;SHT31;55787;52.678;13.314;2023-11-19T02:35:50;4.28;92.46
68804;SHT31;55787;52.678;13.314;2023-11-19T02:38:17;4.32;92.22
68804;SHT31;55787;52.678;13.314;2023-11-19T02:40:44;4.38;91.93
68804;SHT31;55787;52.678;13.314;2023-11-19T02:43:10;4.42;91.33
68804;SHT31;55787;52.678;13.314;2023-11-19T02:45:37;4.40;91.30
68804;SHT31;55787;52.678;13.314;2023-11-19T02:48:04;4.40;91.29
68804;SHT31;55787;52.678;13.314;2023-11-19T02:50:32;4.38;91.70
68804;SHT31;55787;52.678;13.314;2023-11-19T02:52:59;4.39;91.84
68804;SHT31;55787;52.678;13.314;2023-11-19T02:55:26;4.42;91.60
68804;SHT31;55787;52.678;13.314;2023-11-19T02:57:55;4.39;91.59
68804;SHT31;55787;52.678;13.314;2023-11-19T03:00:23;4.45;91.24
68804;SHT31;55787;52.678;13.314;2023-11-19T03:02:51;4.43;91.32
68804;SHT31;55787;52.678;13.314;2023-11-19T03:05:36;4.49;90.93
68804;SHT31;55787;52.678;13.314;2023-11-19T03:08:03;4.49;91.14
68804;SHT31;55787;52.678;13.314;2023-11-19T03:10:30;4.48;91.16
68804;SHT31;55787;52.678;13.314;2023-11-19T03:12:56;4.52;91.25
68804;SHT31;55787;52.678;13.314;2023-11-19T03:15:23;4.48;91.21
68804;SHT31;55787;52.678;13.314;2023-11-19T03:17:50;4.50;91.36
68804;SHT31;55787;52.678;13.314;2023-11-19T03:20:16;4.42;91.80
68804;SHT31;55787;52.678;13.314;2023-11-19T03:22:43;4.39;92.48
68804;SHT31;55787;52.678;13.314;2023-11-19T03:25:10;4.43;93.04
68804;SHT31;55787;52.678;13.314;2023-11-19T03:27:38;4.43;93.15
68804;SHT31;55787;52.678;13.314;2023-11-19T03:30:11;4.48;93.40
68804;SHT31;55787;52.678;13.314;2023-11-19T03:32:38;4.45;93.81
68804;SHT31;55787;52.678;13.314;2023-11-19T03:35:06;4.40;94.06
68804;SHT31;55787;52.678;13.314;2023-11-19T03:37:36;4.42;94.66
68804;SHT31;55787;52.678;13.314;2023-11-19T03:40:03;4.36;94.88
68804;SHT31;55787;52.678;13.314;2023-11-19T03:42:31;4.35;95.11
68804;SHT31;55787;52.678;13.314;2023-11-19T03:44:57;4.38;95.16
68804;SHT31;55787;52.678;13.314;2023-11-19T03:47:24;4.35;95.35
68804;SHT31;55787;52.678;13.314;2023-11-19T03:49:51;4.32;95.56
68804;SHT31;55787;52.678;13.314;2023-11-19T03:52:18;4.32;95.64
68804;SHT31;55787;52.678;13.314;2023-11-19T03:54:46;4.26;95.99
68804;SHT31;55787;52.678;13.314;2023-11-19T03:57:13;4.26;96.33
68804;SHT31;55787;52.678;13.314;2023-11-19T03:59:40;4.23;96.45
68804;SHT31;55787;52.678;13.314;2023-11-19T04:02:06;4.31;96.20
68804;SHT31;55787;52.678;13.314;2023-11-19T04:04:33;4.28;96.17
68804;SHT31;55787;52.678;13.314;2023-11-19T04:07:00;4.26;96.41
68804;SHT31;55787;52.678;13.314;2023-11-19T04:09:29;4.25;96.56
68804;SHT31;55787;52.678;13.314;2023-11-19T04:11:56;4.29;96.65
68804;SHT31;55787;52.678;13.314;2023-11-19T04:14:23;4.25;96.76
68804;SHT31;55787;52.678;13.314;2023-11-19T04:16:50;4.23;97.05
68804;SHT31;55787;52.678;13.314;2023-11-19T04:19:18;4.19;97.25
68804;SHT31;55787;52.678;13.314;2023-11-19T04:21:45;4.15;97.41
68804;SHT31;55787;52.678;13.314;2023-11-19T04:24:12;4.11;97.78
68804;SHT31;55787;52.678;13.314;2023-11-19T04:26:44;4.11;97.85
68804;SHT31;55787;52.678;13.314;2023-11-19T04:29:12;4.11;98.04
68804;SHT31;55787;52.678;13.314;2023-11-19T04:31:39;4.16;98.04
68804;SHT31;55787;52.678;13.314;2023-11-19T04:34:07;4.12;98.02
68804;SHT31;55787;52.678;13.314;2023-11-19T04:36:34;4.12;98.50
68804;SHT31;55787;52.678;13.314;2023-11-19T04:39:01;4.12;98.60
68804;SHT31;55787;52.678;13.314;2023-11-19T04:41:28;4.11;98.69
68804;SHT31;55787;52.678;13.314;2023-11-19T04:43:55;4.05;98.90
68804;SHT31;55787;52.678;13.314;2023-11-19T04:46:22;4.11;98.86
68804;SHT31;55787;52.678;13.314;2023-11-19T04:48:50;4.21;98.73
68804;SHT31;55787;52.678;13.314;2023-11-19T04:51:17;4.08;99.21
68804;SHT31;55787;52.678;13.314;2023-11-19T04:53:43;3.98;99.99
68804;SHT31;55787;52.678;13.314;2023-11-19T04:56:10;3.97;99.99
68804;SHT31;55787;52.678;13.314;2023-11-19T04:58:37;3.94;99.99
68804;SHT31;55787;52.678;13.314;2023-11-19T05:01:04;3.94;99.99
68804;SHT31;55787;52.678;13.314;2023-11-19T05:03:31;3.95;99.99
68804;SHT31;55787;52.678;13.314;2023-11-19T05:05:58;3.99;99.99
68804;SHT31;55787;52.678;13.314;2023-11-19T05:08:25;3.95;99.99
68804;SHT31;55787;52.678;13.314;2023-11-19T05:10:52;4.01;99.99
68804;SHT31;55787;52.678;13.314;2023-11-19T05:13:18;4.03;99.99
68804;SHT31;55787;52.678;13.314;2023-11-19T05:15:45;4.03;99.99
68804;SHT31;55787;52.678;13.314;2023-11-19T05:18:12;4.06;99.99
68804;SHT31;55787;52.678;13.314;2023-11-19T05:20:38;4.01;99.99
68804;SHT31;55787;52.678;13.314;2023-11-19T05:23:05;4.03;99.99
68804;SHT31;55787;52.678;13.314;2023-11-19T05:25:31;4.11;99.99
68804;SHT31;55787;52.678;13.314;2023-11-19T05:27:58;4.08;99.99
68804;SHT31;55787;52.678;13.314;2023-11-19T05:30:25;3.99;99.99
68804;SHT31;55787;52.678;13.314;2023-11-19T05:32:51;3.99;99.99
68804;SHT31;55787;52.678;13.314;2023-11-19T05:35:18;3.98;99.99
68804;SHT31;55787;52.678;13.314;2023-11-19T05:37:44;4.01;99.99
68804;SHT31;55787;52.678;13.314;2023-11-19T05:40:13;4.03;99.99
68804;SHT31;55787;52.678;13.314;2023-11-19T05:42:42;4.06;99.99
68804;SHT31;55787;52.678;13.314;2023-11-19T05:45:11;4.05;99.99
68804;SHT31;55787;52.678;13.314;2023-11-19T05:47:38;4.05;99.99
68804;SHT31;55787;52.678;13.314;2023-11-19T05:50:05;4.11;99.99
68804;SHT31;55787;52.678;13.314;2023-11-19T05:52:32;4.15;99.99
68804;SHT31;55787;52.678;13.314;2023-11-19T05:55:00;4.15;99.99
68804;SHT31;55787;52.678;13.314;2023-11-19T05:57:30;4.13;99.99
68804;SHT31;55787;52.678;13.314;2023-11-19T05:59:57;4.15;99.99
68804;SHT31;55787;52.678;13.314;2023-11-19T06:02:25;4.18;99.99
68804;SHT31;55787;52.678;13.314;2023-11-19T06:04:53;4.18;99.99
68804;SHT31;55787;52.678;13.314;2023-11-19T06:07:20;4.15;99.99
68804;SHT31;55787;52.678;13.314;2023-11-19T06:09:46;4.18;99.99
68804;SHT31;55787;52.678;13.314;2023-11-19T06:12:13;4.29;99.99
68804;SHT31;55787;52.678;13.314;2023-11-19T06:14:40;4.31;99.99
68804;SHT31;55787;52.678;13.314;2023-11-19T06:17:07;4.32;99.99
68804;SHT31;55787;52.678;13.314;2023-11-19T06:19:35;4.31;99.99
68804;SHT31;55787;52.678;13.314;2023-11-19T06:22:02;4.29;99.99
68804;SHT31;55787;52.678;13.314;2023-11-19T06:24:28;4.32;99.99
68804;SHT31;55787;52.678;13.314;2023-11-19T06:26:55;4.35;99.99
68804;SHT31;55787;52.678;13.314;2023-11-19T06:29:22;4.33;99.99
68804;SHT31;55787;52.678;13.314;2023-11-19T06:31:48;4.36;99.99
68804;SHT31;55787;52.678;13.314;2023-11-19T06:34:15;4.35;99.99
68804;SHT31;55787;52.678;13.314;2023-11-19T06:36:42;4.36;99.99
68804;SHT31;55787;52.678;13.314;2023-11-19T06:39:10;4.40;99.99
68804;SHT31;55787;52.678;13.314;2023-11-19T06:41:39;4.43;99.99
68804;SHT31;55787;52.678;13.314;2023-11-19T06:44:10;4.46;99.99
68804;SHT31;55787;52.678;13.314;2023-11-19T06:46:37;4.48;99.99
68804;SHT31;55787;52.678;13.314;2023-11-19T06:49:03;4.45;99.99
68804;SHT31;55787;52.678;13.314;2023-11-19T06:51:30;4.49;99.99
68804;SHT31;55787;52.678;13.314;2023-11-19T06:53:56;4.46;99.99
68804;SHT31;55787;52.678;13.314;2023-11-19T06:56:24;4.49;99.99
68804;SHT31;55787;52.678;13.314;2023-11-19T06:58:51;4.48;99.99
68804;SHT31;55787;52.678;13.314;2023-11-19T07:01:18;4.53;99.99
68804;SHT31;55787;52.678;13.314;2023-11-19T07:03:45;4.53;99.99
68804;SHT31;55787;52.678;13.314;2023-11-19T07:06:15;4.50;99.99
68804;SHT31;55787;52.678;13.314;2023-11-19T07:08:42;4.49;99.99
68804;SHT31;55787;52.678;13.314;2023-11-19T07:11:11;4.54;99.99
68804;SHT31;55787;52.678;13.314;2023-11-19T07:13:38;4.53;99.99
68804;SHT31;55787;52.678;13.314;2023-11-19T07:16:05;4.54;99.99
68804;SHT31;55787;52.678;13.314;2023-11-19T07:18:33;4.60;99.99
68804;SHT31;55787;52.678;13.314;2023-11-19T07:21:02;4.67;99.99
68804;SHT31;55787;52.678;13.314;2023-11-19T07:23:29;4.64;99.99
68804;SHT31;55787;52.678;13.314;2023-11-19T07:25:56;4.60;99.99
68804;SHT31;55787;52.678;13.314;2023-11-19T07:28:23;4.62;99.99
68804;SHT31;55787;52.678;13.314;2023-11-19T07:30:49;4.67;99.99
68804;SHT31;55787;52.678;13.314;2023-11-19T07:33:16;4.71;99.99
68804;SHT31;55787;52.678;13.314;2023-11-19T07:35:42;4.67;99.99
68804;SHT31;55787;52.678;13.314;2023-11-19T07:38:10;4.71;99.99
68804;SHT31;55787;52.678;13.314;2023-11-19T07:40:36;4.73;99.99
68804;SHT31;55787;52.678;13.314;2023-11-19T07:43:03;4.83;99.99
68804;SHT31;55787;52.678;13.314;2023-11-19T07:45:30;4.83;99.99
68804;SHT31;55787;52.678;13.314;2023-11-19T07:47:56;4.80;99.99
68804;SHT31;55787;52.678;13.314;2023-11-19T07:50:23;4.79;99.99
68804;SHT31;55787;52.678;13.314;2023-11-19T07:52:51;4.81;99.99
68804;SHT31;55787;52.678;13.314;2023-11-19T07:55:17;4.81;99.99
68804;SHT31;55787;52.678;13.314;2023-11-19T07:57:44;4.84;99.99
68804;SHT31;55787;52.678;13.314;2023-11-19T08:00:11;4.88;99.99
68804;SHT31;55787;52.678;13.314;2023-11-19T08:02:39;4.90;99.99
68804;SHT31;55787;52.678;13.314;2023-11-19T08:05:06;4.97;99.99
68804;SHT31;55787;52.678;13.314;2023-11-19T08:07:33;4.97;99.99
68804;SHT31;55787;52.678;13.314;2023-11-19T08:10:00;4.98;99.99
68804;SHT31;55787;52.678;13.314;2023-11-19T08:12:26;5.04;99.99
68804;SHT31;55787;52.678;13.314;2023-11-19T08:14:59;5.10;99.99
68804;SHT31;55787;52.678;13.314;2023-11-19T08:17:25;5.15;99.99
68804;SHT31;55787;52.678;13.314;2023-11-19T08:19:52;5.14;99.99
68804;SHT31;55787;52.678;13.314;2023-11-19T08:22:19;5.21;99.99
68804;SHT31;55787;52.678;13.314;2023-11-19T08:24:46;5.21;99.99
68804;SHT31;55787;52.678;13.314;2023-11-19T08:27:12;5.24;99.99
68804;SHT31;55787;52.678;13.314;2023-11-19T08:29:39;5.28;99.99
68804;SHT31;55787;52.678;13.314;2023-11-19T08:32:06;5.39;99.99
68804;SHT31;55787;52.678;13.314;2023-11-19T08:34:33;5.42;99.99
68804;SHT31;55787;52.678;13.314;2023-11-19T08:37:00;5.58;99.99
68804;SHT31;55787;52.678;13.314;2023-11-19T08:39:26;5.58;99.99
68804;SHT31;55787;52.678;13.314;2023-11-19T08:41:53;5.62;99.99
68804;SHT31;55787;52.678;13.314;2023-11-19T08:44:21;5.63;99.99
68804;SHT31;55787;52.678;13.314;2023-11-19T08:46:49;5.82;99.99
68804;SHT31;55787;52.678;13.314;2023-11-19T08:49:16;5.90;99.99
68804;SHT31;55787;52.678;13.314;2023-11-19T08:51:43;6.04;99.99
68804;SHT31;55787;52.678;13.314;2023-11-19T08:54:09;6.09;99.99
68804;SHT31;55787;52.678;13.314;2023-11-19T08:56:36;6.16;99.99
68804;SHT31;55787;52.678;13.314;2023-11-19T08:59:03;6.21;99.99
68804;SHT31;55787;52.678;13.314;2023-11-19T09:01:30;6.31;99.99
68804;SHT31;55787;52.678;13.314;2023-11-19T09:03:57;6.34;99.99
68804;SHT31;55787;52.678;13.314;2023-11-19T09:06:24;6.37;99.99
68804;SHT31;55787;52.678;13.314;2023-11-19T09:08:50;6.40;99.99
68804;SHT31;55787;52.678;13.314;2023-11-19T09:11:17;6.40;99.99
68804;SHT31;55787;52.678;13.314;2023-11-19T09:13:43;6.44;99.99
68804;SHT31;55787;52.678;13.314;2023-11-19T09:16:12;6.52;99.99
68804;SHT31;55787;52.678;13.314;2023-11-19T09:18:39;6.59;99.99
68804;SHT31;55787;52.678;13.314;2023-11-19T09:21:05;6.71;99.99
68804;SHT31;55787;52.678;13.314;2023-11-19T09:23:32;6.78;99.99
68804;SHT31;55787;52.678;13.314;2023-11-19T09:26:03;6.86;99.99
68804;SHT31;55787;52.678;13.314;2023-11-19T09:28:29;6.89;99.99
68804;SHT31;55787;52.678;13.314;2023-11-19T09:30:56;7.02;99.99
68804;SHT31;55787;52.678;13.314;2023-11-19T09:33:23;7.16;99.99
68804;SHT31;55787;52.678;13.314;2023-11-19T09:35:50;7.31;99.99
68804;SHT31;55787;52.678;13.314;2023-11-19T09:38:17;7.41;99.99
68804;SHT31;55787;52.678;13.314;2023-11-19T09:40:43;7.63;99.99
68804;SHT31;55787;52.678;13.314;2023-11-19T09:43:10;8.12;99.99
68804;SHT31;55787;52.678;13.314;2023-11-19T09:45:48;8.15;99.99
68804;SHT31;55787;52.678;13.314;2023-11-19T09:48:19;8.29;99.99
68804;SHT31;55787;52.678;13.314;2023-11-19T09:50:46;8.21;99.99
68804;SHT31;55787;52.678;13.314;2023-11-19T09:53:14;8.40;99.99
68804;SHT31;55787;52.678;13.314;2023-11-19T09:55:42;8.53;99.99
68804;SHT31;55787;52.678;13.314;2023-11-19T09:58:12;8.60;99.64
68804;SHT31;55787;52.678;13.314;2023-11-19T10:00:39;8.71;99.99
68804;SHT31;55787;52.678;13.314;2023-11-19T10:03:07;8.94;99.99
68804;SHT31;55787;52.678;13.314;2023-11-19T10:05:37;8.80;99.69
68804;SHT31;55787;52.678;13.314;2023-11-19T10:08:05;8.71;99.73
68804;SHT31;55787;52.678;13.314;2023-11-19T10:10:33;8.77;99.99
68804;SHT31;55787;52.678;13.314;2023-11-19T10:13:00;9.02;99.99
68804;SHT31;55787;52.678;13.314;2023-11-19T10:15:27;9.14;99.99
68804;SHT31;55787;52.678;13.314;2023-11-19T10:17:57;9.36;99.99
68804;SHT31;55787;52.678;13.314;2023-11-19T10:20:24;9.55;99.84
68804;SHT31;55787;52.678;13.314;2023-11-19T10:22:55;9.59;99.91
68804;SHT31;55787;52.678;13.314;2023-11-19T10:25:26;9.63;99.44
68804;SHT31;55787;52.678;13.314;2023-11-19T10:27:54;9.39;99.99
68804;SHT31;55787;52.678;13.314;2023-11-19T10:30:25;9.55;99.99
68804;SHT31;55787;52.678;13.314;2023-11-19T10:33:12;9.56;99.80
68804;SHT31;55787;52.678;13.314;2023-11-19T10:35:54;9.95;99.99
68804;SHT31;55787;52.678;13.314;2023-11-19T10:38:26;10.15;99.57
68804;SHT31;55787;52.678;13.314;2023-11-19T10:40:54;9.94;99.31
68804;SHT31;55787;52.678;13.314;2023-11-19T10:43:23;10.04;99.47
68804;SHT31;55787;52.678;13.314;2023-11-19T10:45:51;9.95;98.69
68804;SHT31;55787;52.678;13.314;2023-11-19T10:48:17;9.79;99.66
68804;SHT31;55787;52.678;13.314;2023-11-19T10:50:46;9.86;99.65
68804;SHT31;55787;52.678;13.314;2023-11-19T10:53:17;9.94;99.99
68804;SHT31;55787;52.678;13.314;2023-11-19T10:55:47;10.08;99.98
68804;SHT31;55787;52.678;13.314;2023-11-19T10:58:16;10.37;99.69
68804;SHT31;55787;52.678;13.314;2023-11-19T11:00:50;10.58;98.75
68804;SHT31;55787;52.678;13.314;2023-11-19T11:03:19;10.73;99.15
68804;SHT31;55787;52.678;13.314;2023-11-19T11:05:47;10.88;99.00
68804;SHT31;55787;52.678;13.314;2023-11-19T11:08:14;10.86;99.02
68804;SHT31;55787;52.678;13.314;2023-11-19T11:10:53;10.96;98.51
68804;SHT31;55787;52.678;13.314;2023-11-19T11:13:25;11.17;98.24
68804;SHT31;55787;52.678;13.314;2023-11-19T11:15:52;11.26;98.20
68804;SHT31;55787;52.678;13.314;2023-11-19T11:18:20;11.50;98.29
68804;SHT31;55787;52.678;13.314;2023-11-19T11:20:47;11.44;98.33
68804;SHT31;55787;52.678;13.314;2023-11-19T11:28:50;11.91;97.03
68804;SHT31;55787;52.678;13.314;2023-11-19T11:31:26;11.85;96.17
68804;SHT31;55787;52.678;13.314;2023-11-19T11:34:09;11.77;95.83
68804;SHT31;55787;52.678;13.314;2023-11-19T11:37:18;11.58;96.82
68804;SHT31;55787;52.678;13.314;2023-11-19T11:39:47;11.55;96.67
68804;SHT31;55787;52.678;13.314;2023-11-19T11:45:07;11.60;96.76
68804;SHT31;55787;52.678;13.314;2023-11-19T11:50:23;11.34;97.02
68804;SHT31;55787;52.678;13.314;2023-11-19T11:55:36;11.40;97.95
68804;SHT31;55787;52.678;13.314;2023-11-19T11:58:05;11.47;97.73
68804;SHT31;55787;52.678;13.314;2023-11-19T12:00:33;11.48;97.88
68804;SHT31;55787;52.678;13.314;2023-11-19T12:03:04;11.62;97.57
68804;SHT31;55787;52.678;13.314;2023-11-19T12:05:31;11.47;96.38
68804;SHT31;55787;52.678;13.314;2023-11-19T12:08:01;11.44;95.88
68804;SHT31;55787;52.678;13.314;2023-11-19T12:10:29;11.45;96.18
68804;SHT31;55787;52.678;13.314;2023-11-19T12:13:00;11.43;96.52
68804;SHT31;55787;52.678;13.314;2023-11-19T12:15:28;11.35;97.05
68804;SHT31;55787;52.678;13.314;2023-11-19T12:17:55;11.34;97.04
68804;SHT31;55787;52.678;13.314;2023-11-19T12:20:23;11.27;96.41
68804;SHT31;55787;52.678;13.314;2023-11-19T12:22:53;11.28;95.82
68804;SHT31;55787;52.678;13.314;2023-11-19T12:25:20;11.30;96.08
68804;SHT31;55787;52.678;13.314;2023-11-19T12:27:48;11.35;94.95
68804;SHT31;55787;52.678;13.314;2023-11-19T12:30:25;11.37;94.94
68804;SHT31;55787;52.678;13.314;2023-11-19T12:32:53;11.38;94.51
68804;SHT31;55787;52.678;13.314;2023-11-19T12:35:22;11.40;94.82
68804;SHT31;55787;52.678;13.314;2023-11-19T12:37:50;11.43;94.03
68804;SHT31;55787;52.678;13.314;2023-11-19T12:40:27;11.47;93.82
68804;SHT31;55787;52.678;13.314;2023-11-19T12:42:55;11.50;94.53
68804;SHT31;55787;52.678;13.314;2023-11-19T12:45:22;11.45;94.30
68804;SHT31;55787;52.678;13.314;2023-11-19T12:48:08;11.68;93.37
68804;SHT31;55787;52.678;13.314;2023-11-19T12:50:55;11.85;93.71
68804;SHT31;55787;52.678;13.314;2023-11-19T12:53:25;11.92;92.85
68804;SHT31;55787;52.678;13.314;2023-11-19T12:55:53;11.96;92.79
68804;SHT31;55787;52.678;13.314;2023-11-19T12:58:33;11.99;92.48
68804;SHT31;55787;52.678;13.314;2023-11-19T13:01:07;11.95;91.98
68804;SHT31;55787;52.678;13.314;2023-11-19T13:03:37;11.98;91.95
68804;SHT31;55787;52.678;13.314;2023-11-19T13:06:09;12.09;91.70
68804;SHT31;55787;52.678;13.314;2023-11-19T13:08:46;12.12;90.98
68804;SHT31;55787;52.678;13.314;2023-11-19T13:11:30;12.18;90.61
68804;SHT31;55787;52.678;13.314;2023-11-19T13:14:02;12.26;90.78
68804;SHT31;55787;52.678;13.314;2023-11-19T13:16:32;12.29;90.10
68804;SHT31;55787;52.678;13.314;2023-11-19T13:18:59;12.15;90.13
68804;SHT31;55787;52.678;13.314;2023-11-19T13:21:29;12.09;90.55
68804;SHT31;55787;52.678;13.314;2023-11-19T13:23:57;12.11;91.16
68804;SHT31;55787;52.678;13.314;2023-11-19T13:26:23;12.01;90.96
68804;SHT31;55787;52.678;13.314;2023-11-19T13:28:50;11.85;90.29
68804;SHT31;55787;52.678;13.314;2023-11-19T13:31:17;11.78;90.95
68804;SHT31;55787;52.678;13.314;2023-11-19T13:33:43;11.75;91.09
68804;SHT31;55787;52.678;13.314;2023-11-19T13:36:10;11.74;90.36
68804;SHT31;55787;52.678;13.314;2023-11-19T13:38:41;11.72;90.89
68804;SHT31;55787;52.678;13.314;2023-11-19T13:41:08;11.64;91.12
68804;SHT31;55787;52.678;13.314;2023-11-19T13:43:36;11.62;90.71
68804;SHT31;55787;52.678;13.314;2023-11-19T13:46:03;11.58;91.47
68804;SHT31;55787;52.678;13.314;2023-11-19T13:48:30;11.48;91.09
68804;SHT31;55787;52.678;13.314;2023-11-19T13:50:56;11.41;91.42
68804;SHT31;55787;52.678;13.314;2023-11-19T13:53:23;11.45;90.99
68804;SHT31;55787;52.678;13.314;2023-11-19T13:55:50;11.43;91.66
68804;SHT31;55787;52.678;13.314;2023-11-19T13:58:17;11.33;91.27
68804;SHT31;55787;52.678;13.314;2023-11-19T14:00:43;11.26;91.48
68804;SHT31;55787;52.678;13.314;2023-11-19T14:03:10;11.27;92.08
68804;SHT31;55787;52.678;13.314;2023-11-19T14:05:38;11.28;91.65
68804;SHT31;55787;52.678;13.314;2023-11-19T14:08:05;11.23;91.66
68804;SHT31;55787;52.678;13.314;2023-11-19T14:10:51;11.17;92.05
68804;SHT31;55787;52.678;13.314;2023-11-19T14:13:18;11.17;92.39
68804;SHT31;55787;52.678;13.314;2023-11-19T14:15:44;11.23;91.66
68804;SHT31;55787;52.678;13.314;2023-11-19T14:18:15;11.22;92.31
68804;SHT31;55787;52.678;13.314;2023-11-19T14:20:42;11.14;92.16
68804;SHT31;55787;52.678;13.314;2023-11-19T14:23:09;11.10;92.78
68804;SHT31;55787;52.678;13.314;2023-11-19T14:25:35;11.07;92.45
68804;SHT31;55787;52.678;13.314;2023-11-19T14:28:02;11.09;92.88
68804;SHT31;55787;52.678;13.314;2023-11-19T14:30:31;11.03;93.37
68804;SHT31;55787;52.678;13.314;2023-11-19T14:32:58;10.96;92.99
68804;SHT31;55787;52.678;13.314;2023-11-19T14:35:25;10.97;93.32
68804;SHT31;55787;52.678;13.314;2023-11-19T14:37:52;10.96;93.13
68804;SHT31;55787;52.678;13.314;2023-11-19T14:40:19;10.97;93.05
68804;SHT31;55787;52.678;13.314;2023-11-19T14:42:46;10.91;93.31
68804;SHT31;55787;52.678;13.314;2023-11-19T14:45:13;10.95;92.87
68804;SHT31;55787;52.678;13.314;2023-11-19T14:47:39;10.91;92.95
68804;SHT31;55787;52.678;13.314;2023-11-19T14:50:06;10.93;92.92
68804;SHT31;55787;52.678;13.314;2023-11-19T14:52:35;10.91;93.40
68804;SHT31;55787;52.678;13.314;2023-11-19T14:55:02;10.88;93.35
68804;SHT31;55787;52.678;13.314;2023-11-19T14:57:29;10.91;92.90
68804;SHT31;55787;52.678;13.314;2023-11-19T14:59:56;10.91;93.19
68804;SHT31;55787;52.678;13.314;2023-11-19T15:02:22;10.91;93.12
68804;SHT31;55787;52.678;13.314;2023-11-19T15:04:49;10.91;92.51
68804;SHT31;55787;52.678;13.314;2023-11-19T15:07:16;10.86;93.22
68804;SHT31;55787;52.678;13.314;2023-11-19T15:09:42;10.83;93.29
68804;SHT31;55787;52.678;13.314;2023-11-19T15:12:09;10.76;93.38
68804;SHT31;55787;52.678;13.314;2023-11-19T15:14:36;10.80;93.33
68804;SHT31;55787;52.678;13.314;2023-11-19T15:17:02;10.85;92.72
68804;SHT31;55787;52.678;13.314;2023-11-19T15:19:29;10.79;93.20
68804;SHT31;55787;52.678;13.314;2023-11-19T15:21:56;10.71;93.81
68804;SHT31;55787;52.678;13.314;2023-11-19T15:24:23;10.72;93.37
68804;SHT31;55787;52.678;13.314;2023-11-19T15:26:51;10.69;93.96
68804;SHT31;55787;52.678;13.314;2023-11-19T15:29:18;10.69;93.54
68804;SHT31;55787;52.678;13.314;2023-11-19T15:31:46;10.63;93.97
68804;SHT31;55787;52.678;13.314;2023-11-19T15:34:13;10.63;93.89
68804;SHT31;55787;52.678;13.314;2023-11-19T15:36:40;10.62;93.97
68804;SHT31;55787;52.678;13.314;2023-11-19T15:39:06;10.66;93.76
68804;SHT31;55787;52.678;13.314;2023-11-19T15:41:33;10.79;93.21
68804;SHT31;55787;52.678;13.314;2023-11-19T15:43:59;10.76;92.96
68804;SHT31;55787;52.678;13.314;2023-11-19T15:46:26;10.69;93.34
68804;SHT31;55787;52.678;13.314;2023-11-19T15:48:53;10.71;93.44